Time;durP1;ratioP1;P1;durP2;ratioP2;P2;SDS_P1;SDS_P2;PMS_P1;PMS_P2;Temp;Humidity;BMP_temperature;BMP_pressure;BME280_temperature;BME280_humidity;BME280_pressure;Samples;Min_cycle;Max_cycle;Signal;HPM_P1;HPM_P2
2022/08/15 00:00:52;;;;;;;7.47;5.22;;;;;;;;;;5032296;28;20029;-74
2022/08/15 00:03:18;;;;;;;8.63;5.28;;;;;;;;;;5032293;28;20391;-72
2022/08/15 00:05:45;;;;;;;13.40;5.68;;;;;;;;;;5034380;28;20022;-72
2022/08/15 00:08:11;;;;;;;11.02;5.57;;;;;;;;;;5033020;28;20150;-71
2022/08/15 00:10:37;;;;;;;9.80;5.68;;;;;;;;;;5032084;28;20033;-70
2022/08/15 00:13:12;;;;;;;9.25;5.55;;;;;;;;;;5032858;28;20037;-71
2022/08/15 00:15:39;;;;;;;8.27;5.30;;;;;;;;;;5034010;28;20021;-73
2022/08/15 00:18:06;;;;;;;10.43;5.95;;;;;;;;;;5032355;28;20083;-71
2022/08/15 00:20:38;;;;;;;9.48;5.45;;;;;;;;;;5034128;28;20021;-71
2022/08/15 00:23:08;;;;;;;10.65;5.45;;;;;;;;;;5033260;28;20108;-72
2022/08/15 00:25:37;;;;;;;9.25;5.97;;;;;;;;;;5031988;28;20057;-73
2022/08/15 00:28:05;;;;;;;11.57;5.95;;;;;;;;;;5033400;28;20075;-72
2022/08/15 00:30:31;;;;;;;10.75;6.03;;;;;;;;;;5031753;28;20109;-73
2022/08/15 00:32:58;;;;;;;9.70;5.50;;;;;;;;;;5036181;28;20397;-74
2022/08/15 00:35:39;;;;;;;10.27;6.38;;;;;;;;;;5032082;28;20524;-74
2022/08/15 00:38:06;;;;;;;9.75;6.15;;;;;;;;;;5032194;28;20045;-72
2022/08/15 00:41:39;;;;;;;9.98;6.18;;;;;;;;;;5032276;28;20034;-76
2022/08/15 00:43:23;;;;;;;10.02;5.75;;;;;;;;;;5033251;28;20033;-72
2022/08/15 00:45:51;;;;;;;8.80;5.63;;;;;;;;;;5032406;28;20124;-72
2022/08/15 00:51:04;;;;;;;9.68;6.35;;;;;;;;;;5033580;28;20041;-72
2022/08/15 00:53:31;;;;;;;10.77;6.07;;;;;;;;;;5032154;28;20038;-72
2022/08/15 00:55:57;;;;;;;10.80;6.30;;;;;;;;;;5033129;28;20382;-72
2022/08/15 00:58:24;;;;;;;9.13;6.05;;;;;;;;;;5031604;28;20029;-72
2022/08/15 01:00:50;;;;;;;9.35;6.15;;;;;;;;;;5032265;28;20030;-75
2022/08/15 01:03:22;;;;;;;9.20;5.88;;;;;;;;;;5031720;28;20029;-74
2022/08/15 01:05:50;;;;;;;11.40;6.60;;;;;;;;;;5032936;28;20421;-72
2022/08/15 01:08:17;;;;;;;10.18;6.30;;;;;;;;;;5033318;28;20036;-76
2022/08/15 01:10:44;;;;;;;9.25;6.07;;;;;;;;;;5030588;28;20175;-74
2022/08/15 01:13:10;;;;;;;9.73;5.97;;;;;;;;;;5031000;28;20091;-75
2022/08/15 01:15:38;;;;;;;11.35;6.57;;;;;;;;;;5030648;28;20088;-71
2022/08/15 01:18:04;;;;;;;11.23;6.13;;;;;;;;;;5032016;28;20056;-71
2022/08/15 01:20:31;;;;;;;12.80;6.30;;;;;;;;;;5031069;28;20517;-76
2022/08/15 01:23:01;;;;;;;14.88;6.63;;;;;;;;;;5031050;28;20528;-71
2022/08/15 01:25:34;;;;;;;11.13;6.05;;;;;;;;;;5031191;28;20383;-72
2022/08/15 01:28:03;;;;;;;11.55;6.78;;;;;;;;;;5031935;28;20036;-74
2022/08/15 01:30:32;;;;;;;8.93;5.75;;;;;;;;;;5031378;28;20116;-75
2022/08/15 01:32:58;;;;;;;10.93;6.95;;;;;;;;;;5032231;28;20026;-71
2022/08/15 01:35:26;;;;;;;13.18;6.93;;;;;;;;;;5031922;28;20546;-75
2022/08/15 01:37:52;;;;;;;9.55;5.80;;;;;;;;;;5031924;28;20021;-76
2022/08/15 01:40:31;;;;;;;10.40;6.45;;;;;;;;;;5031404;28;20061;-73
2022/08/15 01:42:58;;;;;;;9.45;5.82;;;;;;;;;;5031098;28;20051;-70
2022/08/15 01:45:26;;;;;;;8.77;6.18;;;;;;;;;;5032533;28;20026;-71
2022/08/15 01:48:02;;;;;;;14.00;5.97;;;;;;;;;;5031701;28;20029;-75
2022/08/15 01:50:35;;;;;;;13.10;6.40;;;;;;;;;;5031848;28;20049;-74
2022/08/15 01:53:05;;;;;;;11.07;6.18;;;;;;;;;;5031334;28;20090;-74
2022/08/15 01:55:37;;;;;;;10.35;6.20;;;;;;;;;;5030681;28;20053;-73
2022/08/15 01:58:05;;;;;;;10.45;6.10;;;;;;;;;;5030120;28;20033;-75
2022/08/15 02:00:32;;;;;;;10.48;5.97;;;;;;;;;;5030296;28;20513;-71
2022/08/15 02:02:59;;;;;;;10.88;6.10;;;;;;;;;;5031637;28;20086;-74
2022/08/15 02:05:25;;;;;;;10.60;5.63;;;;;;;;;;5030588;28;20021;-76
2022/08/15 02:07:52;;;;;;;10.02;5.93;;;;;;;;;;5034133;28;20025;-71
2022/08/15 02:10:18;;;;;;;10.48;6.38;;;;;;;;;;5035364;28;20045;-71
2022/08/15 02:12:45;;;;;;;9.93;6.47;;;;;;;;;;5033888;28;20167;-70
2022/08/15 02:15:14;;;;;;;11.45;6.15;;;;;;;;;;5035580;28;20532;-74
2022/08/15 02:17:41;;;;;;;11.30;6.75;;;;;;;;;;5034276;28;20021;-75
2022/08/15 02:20:07;;;;;;;11.75;6.90;;;;;;;;;;5033969;28;20080;-71
2022/08/15 02:22:34;;;;;;;10.15;6.55;;;;;;;;;;5034241;28;20060;-69
2022/08/15 02:25:00;;;;;;;10.63;6.50;;;;;;;;;;5035371;28;20037;-71
2022/08/15 02:27:31;;;;;;;10.15;6.78;;;;;;;;;;5033761;28;20025;-75
2022/08/15 02:29:58;;;;;;;10.98;6.43;;;;;;;;;;5033937;28;20021;-74
2022/08/15 02:32:25;;;;;;;12.57;7.03;;;;;;;;;;5035170;28;20114;-71
2022/08/15 02:34:52;;;;;;;14.02;6.65;;;;;;;;;;5034145;28;20026;-75
2022/08/15 02:37:19;;;;;;;12.40;7.00;;;;;;;;;;5035923;28;20059;-76
2022/08/15 02:39:49;;;;;;;12.18;6.63;;;;;;;;;;5036494;28;20382;-73
2022/08/15 02:42:16;;;;;;;10.25;6.55;;;;;;;;;;5034463;28;20025;-74
2022/08/15 02:44:43;;;;;;;10.30;6.15;;;;;;;;;;5035829;28;20029;-73
2022/08/15 02:47:14;;;;;;;12.10;6.53;;;;;;;;;;5036049;28;20025;-75
2022/08/15 02:49:41;;;;;;;11.57;6.53;;;;;;;;;;5035431;28;20124;-76
2022/08/15 02:52:08;;;;;;;12.98;6.53;;;;;;;;;;5034488;28;20112;-73
2022/08/15 02:54:35;;;;;;;12.48;6.90;;;;;;;;;;5034645;28;20638;-75
2022/08/15 02:57:01;;;;;;;12.20;7.10;;;;;;;;;;5033858;28;20045;-71
2022/08/15 02:59:28;;;;;;;12.80;6.65;;;;;;;;;;5033916;28;20060;-75
2022/08/15 03:01:56;;;;;;;13.15;6.28;;;;;;;;;;5034775;28;20025;-75
2022/08/15 03:04:23;;;;;;;13.15;6.95;;;;;;;;;;5035981;28;20018;-76
2022/08/15 03:06:52;;;;;;;10.73;6.97;;;;;;;;;;5034580;28;20452;-74
2022/08/15 03:09:19;;;;;;;12.00;6.82;;;;;;;;;;5035597;28;20048;-74
2022/08/15 03:11:45;;;;;;;12.98;6.40;;;;;;;;;;5034186;28;20065;-73
2022/08/15 03:14:13;;;;;;;11.30;6.50;;;;;;;;;;5034206;28;20120;-71
2022/08/15 03:16:43;;;;;;;11.68;6.50;;;;;;;;;;5033026;28;20032;-74
2022/08/15 03:19:10;;;;;;;12.90;7.22;;;;;;;;;;5032342;28;20021;-71
2022/08/15 03:21:37;;;;;;;10.93;7.00;;;;;;;;;;5034217;28;20064;-74
2022/08/15 03:24:04;;;;;;;13.60;6.95;;;;;;;;;;5032405;28;20633;-71
2022/08/15 03:26:30;;;;;;;12.13;7.20;;;;;;;;;;5032649;28;20029;-71
2022/08/15 03:28:57;;;;;;;10.82;6.07;;;;;;;;;;5033919;28;20032;-72
2022/08/15 03:31:23;;;;;;;11.15;6.85;;;;;;;;;;5032563;28;20121;-73
2022/08/15 03:33:49;;;;;;;11.23;6.90;;;;;;;;;;5033866;28;20112;-71
2022/08/15 03:36:17;;;;;;;17.55;7.07;;;;;;;;;;5032500;28;20025;-71
2022/08/15 03:38:45;;;;;;;14.52;7.15;;;;;;;;;;5032354;28;20029;-71
2022/08/15 03:41:13;;;;;;;18.20;8.63;;;;;;;;;;5032533;28;20037;-72
2022/08/15 03:43:40;;;;;;;12.20;7.43;;;;;;;;;;5032461;28;20052;-69
2022/08/15 03:46:07;;;;;;;13.18;7.38;;;;;;;;;;5033952;28;20030;-72
2022/08/15 03:48:35;;;;;;;14.65;7.50;;;;;;;;;;5033405;28;20029;-73
2022/08/15 03:51:02;;;;;;;12.25;7.35;;;;;;;;;;5032900;28;20508;-73
2022/08/15 03:53:30;;;;;;;13.75;7.15;;;;;;;;;;5033864;28;20033;-75
2022/08/15 03:55:57;;;;;;;15.52;7.43;;;;;;;;;;5032908;28;20561;-73
2022/08/15 03:58:23;;;;;;;11.45;6.55;;;;;;;;;;5033682;28;20026;-72
2022/08/15 04:00:50;;;;;;;17.52;8.05;;;;;;;;;;5032773;28;20029;-73
2022/08/15 04:03:21;;;;;;;12.95;7.55;;;;;;;;;;5033847;28;20021;-75
2022/08/15 04:05:49;;;;;;;13.85;7.75;;;;;;;;;;5033765;28;20029;-73
2022/08/15 04:08:17;;;;;;;12.27;7.15;;;;;;;;;;5034747;28;20018;-73
2022/08/15 04:10:45;;;;;;;17.27;8.30;;;;;;;;;;5032424;28;20108;-73
2022/08/15 04:13:11;;;;;;;12.38;7.88;;;;;;;;;;5033244;28;20513;-73
2022/08/15 04:15:38;;;;;;;13.77;8.15;;;;;;;;;;5033032;28;20108;-76
2022/08/15 04:18:05;;;;;;;17.63;8.05;;;;;;;;;;5033489;28;20117;-73
2022/08/15 04:20:31;;;;;;;15.25;8.32;;;;;;;;;;5032644;28;20036;-73
2022/08/15 04:22:57;;;;;;;15.50;8.65;;;;;;;;;;5033178;28;20390;-73
2022/08/15 04:25:27;;;;;;;13.15;8.02;;;;;;;;;;5032815;28;20022;-71
2022/08/15 04:27:54;;;;;;;13.40;7.82;;;;;;;;;;5032977;28;20025;-73
2022/08/15 04:30:25;;;;;;;15.15;8.45;;;;;;;;;;5031946;28;20437;-73
2022/08/15 04:32:53;;;;;;;17.42;8.25;;;;;;;;;;5032959;28;20033;-72
2022/08/15 04:35:19;;;;;;;15.82;7.80;;;;;;;;;;5032837;28;20036;-74
2022/08/15 04:37:45;;;;;;;22.67;9.05;;;;;;;;;;5031691;28;20068;-72
2022/08/15 04:40:14;;;;;;;13.43;7.68;;;;;;;;;;5032610;28;20394;-74
2022/08/15 04:42:47;;;;;;;17.42;8.10;;;;;;;;;;5031435;28;20033;-71
2022/08/15 04:45:13;;;;;;;12.00;7.17;;;;;;;;;;5031299;28;20021;-72
2022/08/15 04:47:39;;;;;;;14.32;7.63;;;;;;;;;;5031373;28;20026;-74
2022/08/15 04:50:05;;;;;;;17.50;8.05;;;;;;;;;;5031396;28;20029;-71
2022/08/15 04:52:31;;;;;;;15.23;7.20;;;;;;;;;;5031323;28;20021;-71
2022/08/15 04:54:58;;;;;;;14.63;7.32;;;;;;;;;;5032416;28;20100;-71
2022/08/15 04:57:24;;;;;;;12.32;7.22;;;;;;;;;;5031460;28;20060;-75
2022/08/15 04:59:51;;;;;;;9.65;6.20;;;;;;;;;;5031590;28;20033;-74
2022/08/15 05:02:23;;;;;;;15.88;6.57;;;;;;;;;;5032945;28;20421;-72
2022/08/15 05:04:49;;;;;;;12.10;6.97;;;;;;;;;;5031857;28;20029;-71
2022/08/15 05:07:16;;;;;;;11.38;6.97;;;;;;;;;;5032424;28;20071;-72
2022/08/15 05:09:43;;;;;;;11.40;5.82;;;;;;;;;;5033213;28;20386;-79
2022/08/15 05:12:10;;;;;;;12.48;6.68;;;;;;;;;;5034575;28;20049;-83
2022/08/15 05:14:36;;;;;;;10.75;5.85;;;;;;;;;;5033863;28;20034;-85
2022/08/15 05:17:02;;;;;;;13.00;6.35;;;;;;;;;;5033528;28;20025;-84
2022/08/15 05:19:29;;;;;;;13.50;6.30;;;;;;;;;;5033748;28;20087;-83
2022/08/15 05:21:55;;;;;;;9.73;6.07;;;;;;;;;;5033784;28;20034;-85
2022/08/15 05:24:21;;;;;;;10.57;6.22;;;;;;;;;;5034928;28;20018;-88
2022/08/15 05:26:48;;;;;;;12.48;5.88;;;;;;;;;;5034234;28;20038;-86
2022/08/15 05:29:15;;;;;;;10.57;4.35;;;;;;;;;;5034637;28;20025;-87
2022/08/15 05:31:41;;;;;;;8.20;4.38;;;;;;;;;;5034995;28;20036;-88
2022/08/15 05:34:07;;;;;;;7.40;4.07;;;;;;;;;;5033309;28;20091;-87
2022/08/15 05:36:34;;;;;;;7.80;3.80;;;;;;;;;;5037128;28;20026;-86
2022/08/15 05:39:02;;;;;;;7.45;3.90;;;;;;;;;;5037561;28;20065;-87
2022/08/15 05:42:01;;;;;;;7.70;3.75;;;;;;;;;;5036999;28;20049;-87
2022/08/15 05:44:37;;;;;;;8.95;4.13;;;;;;;;;;5032736;28;20065;-87
2022/08/15 05:47:04;;;;;;;7.47;3.50;;;;;;;;;;5038293;28;20063;-89
2022/08/15 05:49:40;;;;;;;7.03;4.00;;;;;;;;;;5039094;28;20452;-90
2022/08/15 05:52:25;;;;;;;7.20;3.70;;;;;;;;;;5039434;28;20029;-89
2022/08/15 05:55:09;;;;;;;6.93;3.85;;;;;;;;;;5038124;28;20068;-90
2022/08/15 05:57:51;;;;;;;7.10;3.70;;;;;;;;;;5039159;28;20033;-91
2022/08/15 06:00:17;;;;;;;8.50;4.15;;;;;;;;;;5039958;28;20043;-91
2022/08/15 06:02:46;;;;;;;11.98;4.25;;;;;;;;;;5038858;28;20026;-90
2022/08/15 06:05:20;;;;;;;7.65;4.13;;;;;;;;;;5047161;28;20034;-92
2022/08/15 06:07:49;;;;;;;10.05;3.90;;;;;;;;;;5043592;28;20021;-90
2022/08/15 06:10:27;;;;;;;5.90;3.95;;;;;;;;;;5040924;28;20029;-89
2022/08/15 06:13:11;;;;;;;7.38;3.65;;;;;;;;;;5052505;28;20529;-87
2022/08/15 06:15:50;;;;;;;8.45;4.20;;;;;;;;;;5040180;28;20504;-89
2022/08/15 06:18:21;;;;;;;6.30;3.60;;;;;;;;;;5044660;28;20069;-87
2022/08/15 06:21:06;;;;;;;6.90;3.80;;;;;;;;;;5048866;28;20029;-86
2022/08/15 06:23:49;;;;;;;6.45;4.00;;;;;;;;;;5038096;28;20466;-89
2022/08/15 06:26:21;;;;;;;8.45;3.63;;;;;;;;;;5039335;28;20056;-88
2022/08/15 06:29:08;;;;;;;6.50;3.35;;;;;;;;;;5040042;28;20179;-88
2022/08/15 06:31:38;;;;;;;5.63;3.58;;;;;;;;;;5055740;28;20504;-87
2022/08/15 06:34:16;;;;;;;8.25;3.53;;;;;;;;;;5042350;28;20034;-87
2022/08/15 06:37:12;;;;;;;6.50;3.47;;;;;;;;;;5039167;28;20187;-85
2022/08/15 06:39:50;;;;;;;5.10;3.47;;;;;;;;;;5029935;28;20120;-87
2022/08/15 06:42:26;;;;;;;6.00;3.58;;;;;;;;;;5019246;28;20390;-88
2022/08/15 06:44:58;;;;;;;5.80;3.60;;;;;;;;;;5020890;28;20163;-88
2022/08/15 06:47:28;;;;;;;6.38;3.55;;;;;;;;;;5038204;28;20029;-85
2022/08/15 06:49:57;;;;;;;6.35;3.58;;;;;;;;;;5038006;28;20021;-87
2022/08/15 06:52:23;;;;;;;6.82;3.70;;;;;;;;;;5036642;28;20025;-90
2022/08/15 06:54:50;;;;;;;6.30;3.60;;;;;;;;;;5038756;28;20029;-90
2022/08/15 06:57:28;;;;;;;5.80;3.65;;;;;;;;;;5037609;28;20032;-89
2022/08/15 07:00:02;;;;;;;6.50;3.92;;;;;;;;;;5037103;28;20030;-91
2022/08/15 07:02:37;;;;;;;6.47;3.97;;;;;;;;;;5039259;28;20024;-89
2022/08/15 07:05:22;;;;;;;7.03;3.70;;;;;;;;;;5039828;28;20025;-87
2022/08/15 07:08:06;;;;;;;5.68;3.50;;;;;;;;;;5038892;28;20450;-88
2022/08/15 07:10:44;;;;;;;7.40;3.83;;;;;;;;;;5037200;28;20113;-89
2022/08/15 07:13:20;;;;;;;6.82;4.13;;;;;;;;;;5037633;28;20056;-90
2022/08/15 07:15:52;;;;;;;7.03;3.17;;;;;;;;;;5037995;28;20029;-88
2022/08/15 07:18:39;;;;;;;11.43;3.72;;;;;;;;;;5041959;28;20028;-89
2022/08/15 07:21:18;;;;;;;6.00;3.85;;;;;;;;;;5037130;28;20029;-91
2022/08/15 07:24:03;;;;;;;6.85;3.92;;;;;;;;;;5037726;28;20018;-88
2022/08/15 07:26:40;;;;;;;8.52;4.00;;;;;;;;;;5037458;28;20032;-89
2022/08/15 07:29:14;;;;;;;5.53;3.60;;;;;;;;;;5038218;28;20056;-90
2022/08/15 07:31:43;;;;;;;6.10;3.78;;;;;;;;;;5037564;28;20026;-91
2022/08/15 07:34:21;;;;;;;9.68;3.70;;;;;;;;;;5039559;28;20105;-90
2022/08/15 07:36:55;;;;;;;9.02;3.00;;;;;;;;;;5038558;28;20029;-87
2022/08/15 07:39:23;;;;;;;7.47;3.20;;;;;;;;;;5042405;28;20386;-91
2022/08/15 07:41:49;;;;;;;5.50;3.65;;;;;;;;;;5044237;28;20032;-88
2022/08/15 07:44:20;;;;;;;8.02;3.38;;;;;;;;;;5050404;28;20033;-92
2022/08/15 07:47:10;;;;;;;5.97;3.15;;;;;;;;;;5056435;28;20029;-91
2022/08/15 07:49:37;;;;;;;5.85;3.10;;;;;;;;;;5049479;28;20033;-91
2022/08/15 07:52:31;;;;;;;5.32;2.90;;;;;;;;;;5049617;28;20021;-92
2022/08/15 07:54:59;;;;;;;6.65;3.20;;;;;;;;;;5071901;28;20042;-89
2022/08/15 07:57:27;;;;;;;10.27;2.88;;;;;;;;;;5039619;28;20021;-91
2022/08/15 08:00:16;;;;;;;9.30;3.00;;;;;;;;;;5037839;28;20478;-92
2022/08/15 08:03:01;;;;;;;5.45;3.15;;;;;;;;;;5035125;28;20026;-87
2022/08/15 08:05:29;;;;;;;7.00;3.22;;;;;;;;;;5037295;28;20166;-88
2022/08/15 08:07:56;;;;;;;5.30;2.78;;;;;;;;;;5039545;28;20028;-89
2022/08/15 08:10:28;;;;;;;6.10;2.97;;;;;;;;;;5035355;28;20032;-89
2022/08/15 08:13:18;;;;;;;6.43;3.15;;;;;;;;;;5035101;28;20049;-88
2022/08/15 08:15:48;;;;;;;5.32;2.97;;;;;;;;;;5035633;28;20029;-88
2022/08/15 08:18:21;;;;;;;8.68;3.10;;;;;;;;;;5035858;28;20080;-88
2022/08/15 08:20:51;;;;;;;8.73;3.90;;;;;;;;;;5034699;28;20030;-88
2022/08/15 08:23:29;;;;;;;5.25;3.35;;;;;;;;;;5034837;28;20034;-88
2022/08/15 08:26:08;;;;;;;6.03;3.70;;;;;;;;;;5034871;28;20075;-88
2022/08/15 08:28:38;;;;;;;6.82;3.25;;;;;;;;;;5035736;28;20021;-87
2022/08/15 08:31:04;;;;;;;6.50;2.97;;;;;;;;;;5037112;28;20029;-87
2022/08/15 08:33:33;;;;;;;6.60;3.38;;;;;;;;;;5043304;28;20033;-89
2022/08/15 08:36:21;;;;;;;10.35;3.05;;;;;;;;;;5038145;28;20500;-86
2022/08/15 08:38:55;;;;;;;6.07;2.90;;;;;;;;;;5035286;28;20025;-88
2022/08/15 08:41:34;;;;;;;4.10;2.63;;;;;;;;;;5037635;28;20025;-89
2022/08/15 08:44:14;;;;;;;5.43;2.83;;;;;;;;;;5036865;28;20120;-91
2022/08/15 08:46:48;;;;;;;4.97;3.00;;;;;;;;;;5036261;28;20025;-89
2022/08/15 08:49:23;;;;;;;4.47;2.92;;;;;;;;;;5035050;28;20030;-90
2022/08/15 08:52:08;;;;;;;4.20;2.50;;;;;;;;;;5035674;28;20029;-89
2022/08/15 08:54:45;;;;;;;4.10;2.70;;;;;;;;;;5039552;28;20037;-89
2022/08/15 08:57:15;;;;;;;6.68;2.33;;;;;;;;;;5034954;28;20029;-91
2022/08/15 09:00:17;;;;;;;11.77;2.75;;;;;;;;;;5035470;28;20033;-89
2022/08/15 09:02:47;;;;;;;4.28;2.45;;;;;;;;;;5031235;28;20041;-88
2022/08/15 09:05:19;;;;;;;5.97;2.57;;;;;;;;;;5020155;28;20033;-87
2022/08/15 09:07:48;;;;;;;3.67;2.15;;;;;;;;;;5036627;28;20026;-88
2022/08/15 09:10:21;;;;;;;5.38;2.20;;;;;;;;;;5034483;28;20021;-87
2022/08/15 09:15:35;;;;;;;8.38;1.90;;;;;;;;;;5035703;28;20118;-89
2022/08/15 09:18:05;;;;;;;6.32;2.40;;;;;;;;;;5036268;28;20037;-89
2022/08/15 09:20:33;;;;;;;4.05;2.05;;;;;;;;;;5043779;28;20036;-88
2022/08/15 09:23:00;;;;;;;2.80;2.08;;;;;;;;;;5043408;28;20028;-87
2022/08/15 09:25:27;;;;;;;3.88;1.90;;;;;;;;;;5034132;28;20032;-89
2022/08/15 09:28:02;;;;;;;3.47;2.08;;;;;;;;;;5033839;28;20037;-87
2022/08/15 09:30:29;;;;;;;2.70;2.00;;;;;;;;;;5034122;28;20497;-89
2022/08/15 09:33:14;;;;;;;3.70;2.55;;;;;;;;;;5038173;28;20025;-88
2022/08/15 09:35:47;;;;;;;3.83;2.15;;;;;;;;;;5035758;28;20033;-87
2022/08/15 09:38:14;;;;;;;2.70;2.10;;;;;;;;;;5034960;28;20032;-86
2022/08/15 09:40:40;;;;;;;3.25;2.03;;;;;;;;;;5034461;28;20056;-88
2022/08/15 09:43:12;;;;;;;3.72;2.00;;;;;;;;;;5034537;28;20022;-90
2022/08/15 09:46:08;;;;;;;2.38;1.15;;;;;;;;;;5033635;28;20466;-88
2022/08/15 09:48:40;;;;;;;2.60;1.33;;;;;;;;;;5044108;28;20021;-90
2022/08/15 09:51:29;;;;;;;8.80;1.65;;;;;;;;;;5033862;28;20033;-89
2022/08/15 09:54:01;;;;;;;2.80;1.42;;;;;;;;;;5033224;28;20095;-90
2022/08/15 09:56:30;;;;;;;2.28;1.60;;;;;;;;;;5033954;28;20033;-87
2022/08/15 09:58:57;;;;;;;2.78;1.20;;;;;;;;;;5034197;28;20116;-88
2022/08/15 10:01:28;;;;;;;2.53;1.60;;;;;;;;;;5034276;28;20025;-90
2022/08/15 10:03:55;;;;;;;2.35;1.38;;;;;;;;;;5033878;28;20167;-89
2022/08/15 10:06:26;;;;;;;3.38;1.75;;;;;;;;;;5034813;28;20087;-90
2022/08/15 10:08:55;;;;;;;;;;;;;;;;;;5034724;28;20116;-89
2022/08/15 10:11:46;;;;;;;3.20;1.80;;;;;;;;;;5035050;28;19916;-89
2022/08/15 10:14:25;;;;;;;3.00;1.63;;;;;;;;;;5033653;28;20137;-90
2022/08/15 10:17:04;;;;;;;2.38;1.42;;;;;;;;;;5033444;28;20057;-89
2022/08/15 10:19:35;;;;;;;2.53;1.58;;;;;;;;;;5020161;28;20437;-89
2022/08/15 10:22:21;;;;;;;5.22;2.15;;;;;;;;;;5037630;28;20081;-89
2022/08/15 10:25:07;;;;;;;3.70;1.70;;;;;;;;;;5036778;28;20025;-90
2022/08/15 10:27:52;;;;;;;2.90;1.52;;;;;;;;;;5046895;28;20021;-89
2022/08/15 10:30:18;;;;;;;3.10;1.60;;;;;;;;;;5048649;28;20029;-89
2022/08/15 10:32:44;;;;;;;5.28;1.75;;;;;;;;;;5036948;28;20041;-90
2022/08/15 10:35:16;;;;;;;3.58;2.10;;;;;;;;;;5038438;28;20136;-89
2022/08/15 10:37:51;;;;;;;3.65;2.08;;;;;;;;;;5037081;28;20029;-87
2022/08/15 10:40:30;;;;;;;3.28;1.50;;;;;;;;;;5037108;28;20490;-87
2022/08/15 10:43:05;;;;;;;3.72;1.90;;;;;;;;;;5036434;28;20459;-88
2022/08/15 10:45:50;;;;;;;3.35;1.98;;;;;;;;;;5036574;28;20048;-90
2022/08/15 10:48:16;;;;;;;3.08;1.85;;;;;;;;;;5041740;28;20024;-90
2022/08/15 10:50:53;;;;;;;7.03;1.90;;;;;;;;;;5047718;28;20037;-91
2022/08/15 10:53:27;;;;;;;5.50;2.08;;;;;;;;;;5042872;28;20065;-87
2022/08/15 10:56:05;;;;;;;6.90;2.35;;;;;;;;;;5043834;28;20025;-89
2022/08/15 10:58:32;;;;;;;3.75;1.80;;;;;;;;;;5038384;28;20037;-86
2022/08/15 11:01:20;;;;;;;3.28;1.77;;;;;;;;;;5038336;28;20018;-88
2022/08/15 11:03:49;;;;;;;2.90;1.70;;;;;;;;;;5041003;28;20026;-87
2022/08/15 11:06:17;;;;;;;3.65;1.98;;;;;;;;;;5037605;28;20021;-90
2022/08/15 11:08:46;;;;;;;2.35;1.40;;;;;;;;;;5038776;28;20447;-90
2022/08/15 11:11:13;;;;;;;2.45;1.40;;;;;;;;;;5036820;28;20059;-92
2022/08/15 11:13:42;;;;;;;3.85;1.77;;;;;;;;;;5037221;28;20044;-90
2022/08/15 11:16:13;;;;;;;3.47;1.35;;;;;;;;;;5037016;28;20029;-91
2022/08/15 11:18:50;;;;;;;3.50;1.52;;;;;;;;;;5037475;28;20112;-89
2022/08/15 11:21:19;;;;;;;3.95;1.85;;;;;;;;;;5037834;28;20121;-88
2022/08/15 11:23:52;;;;;;;2.72;1.67;;;;;;;;;;5038089;28;20021;-86
2022/08/15 11:26:22;;;;;;;3.17;1.45;;;;;;;;;;5036613;28;20026;-89
2022/08/15 11:28:48;;;;;;;5.82;1.60;;;;;;;;;;5036960;28;20022;-89
2022/08/15 11:31:19;;;;;;;3.08;1.25;;;;;;;;;;5037385;28;20009;-85
2022/08/15 11:33:48;;;;;;;2.88;1.65;;;;;;;;;;5038374;28;20072;-90
2022/08/15 11:36:17;;;;;;;6.35;2.83;;;;;;;;;;5036425;28;20025;-88
2022/08/15 11:38:46;;;;;;;7.03;1.90;;;;;;;;;;5035321;28;20116;-90
2022/08/15 11:41:35;;;;;;;3.67;1.95;;;;;;;;;;5035927;28;20478;-90
2022/08/15 11:44:02;;;;;;;5.10;2.03;;;;;;;;;;5032118;28;20463;-84
2022/08/15 11:46:28;;;;;;;3.80;2.10;;;;;;;;;;5035410;28;20026;-85
2022/08/15 11:49:14;;;;;;;8.32;2.15;;;;;;;;;;5035689;28;20084;-91
2022/08/15 11:51:45;;;;;;;4.90;1.80;;;;;;;;;;5051901;28;20034;-85
2022/08/15 11:54:11;;;;;;;3.60;1.88;;;;;;;;;;5035758;28;20033;-88
2022/08/15 11:57:06;;;;;;;5.90;1.90;;;;;;;;;;5035918;28;20028;-85
2022/08/15 11:59:34;;;;;;;3.70;1.90;;;;;;;;;;5051512;28;20037;-92
2022/08/15 12:02:05;;;;;;;4.50;2.05;;;;;;;;;;5036953;28;20038;-92
2022/08/15 12:04:33;;;;;;;2.92;2.10;;;;;;;;;;5036868;28;20383;-91
2022/08/15 12:07:15;;;;;;;4.60;2.00;;;;;;;;;;5037252;28;20029;-91
2022/08/15 12:09:59;;;;;;;4.87;2.20;;;;;;;;;;5037036;28;20525;-91
2022/08/15 12:12:31;;;;;;;3.50;2.10;;;;;;;;;;5036715;28;20052;-90
2022/08/15 12:15:01;;;;;;;5.70;1.70;;;;;;;;;;5037453;28;20034;-88
2022/08/15 12:17:30;;;;;;;2.97;1.90;;;;;;;;;;5035654;28;20497;-87
2022/08/15 12:19:57;;;;;;;4.43;1.70;;;;;;;;;;5035392;28;20021;-88
2022/08/15 12:22:31;;;;;;;3.15;1.55;;;;;;;;;;5034580;28;20124;-87
2022/08/15 12:24:57;;;;;;;4.45;2.03;;;;;;;;;;5033221;28;20017;-85
2022/08/15 12:27:23;;;;;;;4.05;1.70;;;;;;;;;;5034621;28;20232;-87
2022/08/15 12:29:50;;;;;;;2.55;1.60;;;;;;;;;;5034511;28;20022;-85
2022/08/15 12:32:16;;;;;;;3.53;1.40;;;;;;;;;;5035820;28;20031;-86
2022/08/15 12:34:46;;;;;;;3.80;1.55;;;;;;;;;;5033026;28;20036;-85
2022/08/15 12:37:16;;;;;;;4.15;1.50;;;;;;;;;;5035254;28;20021;-88
2022/08/15 12:39:44;;;;;;;5.90;1.75;;;;;;;;;;5034603;28;20386;-85
2022/08/15 12:42:11;;;;;;;3.75;1.95;;;;;;;;;;5034486;28;20021;-85
2022/08/15 12:44:38;;;;;;;4.15;1.75;;;;;;;;;;5033920;28;20075;-87
2022/08/15 12:47:05;;;;;;;3.90;1.85;;;;;;;;;;5034271;28;20025;-85
2022/08/15 12:49:31;;;;;;;4.25;2.30;;;;;;;;;;5035013;28;20033;-87
2022/08/15 12:51:57;;;;;;;3.35;2.00;;;;;;;;;;5033321;28;20018;-86
2022/08/15 12:54:23;;;;;;;3.95;2.50;;;;;;;;;;5034404;28;20107;-86
2022/08/15 12:56:49;;;;;;;4.75;2.30;;;;;;;;;;5036214;28;20032;-86
2022/08/15 12:59:15;;;;;;;6.00;1.98;;;;;;;;;;5034122;28;20025;-85
2022/08/15 13:01:43;;;;;;;2.53;1.92;;;;;;;;;;5034352;28;20128;-85
2022/08/15 13:04:10;;;;;;;5.93;2.40;;;;;;;;;;5033976;28;20025;-86
2022/08/15 13:06:44;;;;;;;6.18;2.22;;;;;;;;;;5037837;28;20546;-85
2022/08/15 13:09:14;;;;;;;3.33;2.30;;;;;;;;;;5041779;28;20060;-87
2022/08/15 13:11:42;;;;;;;3.40;2.22;;;;;;;;;;5038272;28;20054;-84
2022/08/15 13:14:09;;;;;;;22.90;3.17;;;;;;;;;;5035429;28;20034;-85
2022/08/15 13:16:35;;;;;;;5.10;2.40;;;;;;;;;;5032948;28;20029;-85
2022/08/15 13:19:03;;;;;;;7.25;2.78;;;;;;;;;;5033647;28;20053;-85
2022/08/15 13:24:14;;;;;;;4.13;2.13;;;;;;;;;;5020305;28;20044;-86
2022/08/15 13:26:41;;;;;;;4.97;2.15;;;;;;;;;;5034541;28;20048;-86
2022/08/15 13:29:08;;;;;;;6.28;2.50;;;;;;;;;;5033923;28;20030;-85
2022/08/15 13:31:34;;;;;;;4.25;2.28;;;;;;;;;;5033598;28;20466;-89
2022/08/15 13:34:00;;;;;;;3.60;2.40;;;;;;;;;;5033269;28;20041;-86
2022/08/15 13:36:28;;;;;;;4.03;2.25;;;;;;;;;;5033211;28;20044;-85
2022/08/15 13:38:56;;;;;;;4.15;2.40;;;;;;;;;;5034466;28;20021;-85
2022/08/15 13:41:25;;;;;;;3.60;2.15;;;;;;;;;;5032904;28;20028;-84
2022/08/15 13:43:51;;;;;;;4.65;2.03;;;;;;;;;;5032410;28;20052;-84
2022/08/15 13:46:19;;;;;;;5.20;2.20;;;;;;;;;;5033011;28;20033;-84
2022/08/15 13:48:46;;;;;;;10.40;2.47;;;;;;;;;;5034216;28;20075;-84
2022/08/15 13:51:19;;;;;;;8.23;2.60;;;;;;;;;;5033737;28;20087;-87
2022/08/15 13:53:46;;;;;;;2.88;1.85;;;;;;;;;;5035424;28;20048;-90
2022/08/15 13:56:13;;;;;;;7.68;2.58;;;;;;;;;;5033823;28;20032;-90
2022/08/15 13:58:39;;;;;;;5.00;2.08;;;;;;;;;;5034714;28;20025;-89
2022/08/15 14:01:05;;;;;;;7.38;2.50;;;;;;;;;;5033435;28;20021;-89
2022/08/15 14:03:34;;;;;;;4.05;2.47;;;;;;;;;;5037987;28;20485;-85
2022/08/15 14:06:01;;;;;;;3.25;2.13;;;;;;;;;;5038018;28;20060;-87
2022/08/15 14:08:27;;;;;;;14.38;2.90;;;;;;;;;;5038579;28;20037;-91
2022/08/15 14:10:53;;;;;;;3.97;2.80;;;;;;;;;;5037443;28;20029;-89
2022/08/15 14:13:21;;;;;;;5.47;2.90;;;;;;;;;;5038832;28;20042;-88
2022/08/15 14:16:04;;;;;;;9.48;3.20;;;;;;;;;;5042236;28;20021;-89
2022/08/15 14:19:01;;;;;;;3.85;3.00;;;;;;;;;;5036252;28;20026;-91
2022/08/15 14:21:27;;;;;;;3.75;3.00;;;;;;;;;;5037303;28;20041;-89
2022/08/15 14:23:55;;;;;;;9.75;3.03;;;;;;;;;;5036828;28;20030;-89
2022/08/15 14:26:23;;;;;;;6.15;2.92;;;;;;;;;;5038935;28;20030;-89
2022/08/15 14:28:50;;;;;;;4.32;2.72;;;;;;;;;;5037087;28;20124;-90
2022/08/15 14:31:18;;;;;;;4.53;3.08;;;;;;;;;;5037614;28;20079;-90
2022/08/15 14:33:44;;;;;;;6.18;2.88;;;;;;;;;;5037125;28;20033;-90
2022/08/15 14:36:11;;;;;;;5.82;2.90;;;;;;;;;;5037286;28;20025;-89
2022/08/15 14:38:37;;;;;;;5.07;2.58;;;;;;;;;;5036926;28;20032;-89
2022/08/15 14:41:03;;;;;;;6.97;3.05;;;;;;;;;;5037977;28;20025;-89
2022/08/15 14:43:29;;;;;;;6.95;3.08;;;;;;;;;;5036949;28;20459;-88
2022/08/15 14:45:59;;;;;;;5.28;2.60;;;;;;;;;;5039213;28;20069;-90
2022/08/15 14:48:27;;;;;;;5.43;2.42;;;;;;;;;;5041126;28;20022;-88
2022/08/15 14:50:54;;;;;;;4.55;2.40;;;;;;;;;;5036456;28;20021;-88
2022/08/15 14:53:22;;;;;;;4.95;2.47;;;;;;;;;;5039393;28;20038;-90
2022/08/15 14:55:49;;;;;;;6.53;2.50;;;;;;;;;;5038679;28;20022;-89
2022/08/15 14:58:19;;;;;;;3.47;1.92;;;;;;;;;;5039086;28;20056;-91
2022/08/15 15:00:45;;;;;;;3.92;2.00;;;;;;;;;;5037762;28;20446;-87
2022/08/15 15:03:12;;;;;;;2.92;1.70;;;;;;;;;;5037656;28;20112;-87
2022/08/15 15:05:39;;;;;;;3.63;2.00;;;;;;;;;;5037068;28;20087;-88
2022/08/15 15:08:06;;;;;;;2.83;1.60;;;;;;;;;;5036522;28;20021;-87